sensor_id;sensor_type;location;lat;lon;timestamp;P1;durP1;ratioP1;P2;durP2;ratioP2
9900;SDS011;4989;48.772;9.154;2023-11-19T00:00:20;1.30;;;1.20;;
9900;SDS011;4989;48.772;9.154;2023-11-19T00:05:22;2.37;;;1.30;;
9900;SDS011;4989;48.772;9.154;2023-11-19T00:10:24;1.30;;;1.20;;
9900;SDS011;4989;48.772;9.154;2023-11-19T00:15:26;1.13;;;1.10;;
9900;SDS011;4989;48.772;9.154;2023-11-19T00:20:30;1.07;;;0.97;;
9900;SDS011;4989;48.772;9.154;2023-11-19T00:25:32;0.80;;;0.80;;
9900;SDS011;4989;48.772;9.154;2023-11-19T00:30:34;1.23;;;0.90;;
9900;SDS011;4989;48.772;9.154;2023-11-19T00:35:36;0.60;;;0.60;;
9900;SDS011;4989;48.772;9.154;2023-11-19T00:40:39;0.83;;;0.83;;
9900;SDS011;4989;48.772;9.154;2023-11-19T00:45:42;2.00;;;0.70;;
9900;SDS011;4989;48.772;9.154;2023-11-19T00:50:44;2.10;;;0.90;;
9900;SDS011;4989;48.772;9.154;2023-11-19T00:55:47;0.67;;;0.67;;
9900;SDS011;4989;48.772;9.154;2023-11-19T01:00:50;1.40;;;0.67;;
9900;SDS011;4989;48.772;9.154;2023-11-19T01:05:52;0.57;;;0.57;;
9900;SDS011;4989;48.772;9.154;2023-11-19T01:10:55;0.63;;;0.63;;
9900;SDS011;4989;48.772;9.154;2023-11-19T01:15:57;0.50;;;0.50;;
9900;SDS011;4989;48.772;9.154;2023-11-19T01:21:00;0.60;;;0.60;;
9900;SDS011;4989;48.772;9.154;2023-11-19T01:26:02;1.70;;;0.87;;
9900;SDS011;4989;48.772;9.154;2023-11-19T01:31:05;0.87;;;0.60;;
9900;SDS011;4989;48.772;9.154;2023-11-19T01:36:12;0.20;;;0.20;;
9900;SDS011;4989;48.772;9.154;2023-11-19T01:41:15;0.30;;;0.30;;
9900;SDS011;4989;48.772;9.154;2023-11-19T01:46:18;0.30;;;0.30;;
9900;SDS011;4989;48.772;9.154;2023-11-19T01:51:20;0.17;;;0.17;;
9900;SDS011;4989;48.772;9.154;2023-11-19T01:56:24;0.30;;;0.30;;
9900;SDS011;4989;48.772;9.154;2023-11-19T02:01:28;0.47;;;0.47;;
9900;SDS011;4989;48.772;9.154;2023-11-19T02:06:32;0.20;;;0.20;;
9900;SDS011;4989;48.772;9.154;2023-11-19T02:11:36;0.20;;;0.20;;
9900;SDS011;4989;48.772;9.154;2023-11-19T02:16:41;0.43;;;0.27;;
9900;SDS011;4989;48.772;9.154;2023-11-19T02:21:44;0.33;;;0.33;;
9900;SDS011;4989;48.772;9.154;2023-11-19T02:26:48;0.40;;;0.40;;
9900;SDS011;4989;48.772;9.154;2023-11-19T02:32:07;0.80;;;0.33;;
9900;SDS011;4989;48.772;9.154;2023-11-19T02:37:11;0.40;;;0.40;;
9900;SDS011;4989;48.772;9.154;2023-11-19T02:42:13;0.70;;;0.50;;
9900;SDS011;4989;48.772;9.154;2023-11-19T02:47:17;0.30;;;0.30;;
9900;SDS011;4989;48.772;9.154;2023-11-19T02:52:21;0.37;;;0.37;;
9900;SDS011;4989;48.772;9.154;2023-11-19T02:57:23;0.90;;;0.40;;
9900;SDS011;4989;48.772;9.154;2023-11-19T03:02:26;0.30;;;0.30;;
9900;SDS011;4989;48.772;9.154;2023-11-19T03:07:36;1.27;;;0.97;;
9900;SDS011;4989;48.772;9.154;2023-11-19T03:12:38;0.20;;;0.20;;
9900;SDS011;4989;48.772;9.154;2023-11-19T03:17:42;0.60;;;0.40;;
9900;SDS011;4989;48.772;9.154;2023-11-19T03:22:44;0.37;;;0.30;;
9900;SDS011;4989;48.772;9.154;2023-11-19T03:27:48;0.30;;;0.30;;
9900;SDS011;4989;48.772;9.154;2023-11-19T03:32:50;0.37;;;0.30;;
9900;SDS011;4989;48.772;9.154;2023-11-19T03:37:52;0.30;;;0.30;;
9900;SDS011;4989;48.772;9.154;2023-11-19T03:42:58;0.40;;;0.40;;
9900;SDS011;4989;48.772;9.154;2023-11-19T03:48:00;0.50;;;0.33;;
9900;SDS011;4989;48.772;9.154;2023-11-19T03:53:03;0.30;;;0.30;;
9900;SDS011;4989;48.772;9.154;2023-11-19T03:58:06;0.43;;;0.43;;
9900;SDS011;4989;48.772;9.154;2023-11-19T04:03:08;0.37;;;0.37;;
9900;SDS011;4989;48.772;9.154;2023-11-19T04:08:11;0.23;;;0.23;;
9900;SDS011;4989;48.772;9.154;2023-11-19T04:13:13;0.30;;;0.30;;
9900;SDS011;4989;48.772;9.154;2023-11-19T04:18:16;0.20;;;0.20;;
9900;SDS011;4989;48.772;9.154;2023-11-19T04:23:18;0.20;;;0.20;;
9900;SDS011;4989;48.772;9.154;2023-11-19T04:28:21;0.33;;;0.33;;
9900;SDS011;4989;48.772;9.154;2023-11-19T04:33:23;0.27;;;0.27;;
9900;SDS011;4989;48.772;9.154;2023-11-19T04:38:26;2.83;;;0.47;;
9900;SDS011;4989;48.772;9.154;2023-11-19T04:43:28;0.30;;;0.30;;
9900;SDS011;4989;48.772;9.154;2023-11-19T04:48:31;0.20;;;0.20;;
9900;SDS011;4989;48.772;9.154;2023-11-19T04:53:42;0.20;;;0.20;;
9900;SDS011;4989;48.772;9.154;2023-11-19T04:58:45;0.30;;;0.30;;
9900;SDS011;4989;48.772;9.154;2023-11-19T05:03:47;0.20;;;0.20;;
9900;SDS011;4989;48.772;9.154;2023-11-19T05:08:49;0.20;;;0.20;;
9900;SDS011;4989;48.772;9.154;2023-11-19T05:13:51;0.20;;;0.20;;
9900;SDS011;4989;48.772;9.154;2023-11-19T05:18:54;0.30;;;0.30;;
9900;SDS011;4989;48.772;9.154;2023-11-19T05:23:56;0.67;;;0.30;;
9900;SDS011;4989;48.772;9.154;2023-11-19T05:28:58;0.20;;;0.20;;
9900;SDS011;4989;48.772;9.154;2023-11-19T05:34:00;0.57;;;0.20;;
9900;SDS011;4989;48.772;9.154;2023-11-19T05:39:02;0.33;;;0.33;;
9900;SDS011;4989;48.772;9.154;2023-11-19T05:44:06;0.13;;;0.13;;
9900;SDS011;4989;48.772;9.154;2023-11-19T05:49:08;0.30;;;0.30;;
9900;SDS011;4989;48.772;9.154;2023-11-19T05:54:11;0.30;;;0.30;;
9900;SDS011;4989;48.772;9.154;2023-11-19T05:59:15;0.43;;;0.27;;
9900;SDS011;4989;48.772;9.154;2023-11-19T06:04:19;0.20;;;0.20;;
9900;SDS011;4989;48.772;9.154;2023-11-19T06:09:21;0.20;;;0.20;;
9900;SDS011;4989;48.772;9.154;2023-11-19T06:14:26;0.37;;;0.37;;
9900;SDS011;4989;48.772;9.154;2023-11-19T06:19:28;0.30;;;0.30;;
9900;SDS011;4989;48.772;9.154;2023-11-19T06:24:31;0.20;;;0.20;;
9900;SDS011;4989;48.772;9.154;2023-11-19T06:29:33;0.20;;;0.20;;
9900;SDS011;4989;48.772;9.154;2023-11-19T06:34:36;1.50;;;0.40;;
9900;SDS011;4989;48.772;9.154;2023-11-19T06:39:38;0.30;;;0.30;;
9900;SDS011;4989;48.772;9.154;2023-11-19T06:44:40;0.30;;;0.30;;
9900;SDS011;4989;48.772;9.154;2023-11-19T06:49:45;0.40;;;0.40;;
9900;SDS011;4989;48.772;9.154;2023-11-19T06:54:47;0.67;;;0.33;;
9900;SDS011;4989;48.772;9.154;2023-11-19T06:59:49;0.30;;;0.30;;
9900;SDS011;4989;48.772;9.154;2023-11-19T07:04:52;0.30;;;0.30;;
9900;SDS011;4989;48.772;9.154;2023-11-19T07:09:54;0.30;;;0.30;;
9900;SDS011;4989;48.772;9.154;2023-11-19T07:14:56;0.30;;;0.30;;
9900;SDS011;4989;48.772;9.154;2023-11-19T07:19:59;0.37;;;0.37;;
9900;SDS011;4989;48.772;9.154;2023-11-19T07:25:01;0.30;;;0.30;;
9900;SDS011;4989;48.772;9.154;2023-11-19T07:30:04;0.30;;;0.30;;
9900;SDS011;4989;48.772;9.154;2023-11-19T07:35:08;0.33;;;0.33;;
9900;SDS011;4989;48.772;9.154;2023-11-19T07:40:11;0.50;;;0.50;;
9900;SDS011;4989;48.772;9.154;2023-11-19T07:45:13;0.30;;;0.30;;
9900;SDS011;4989;48.772;9.154;2023-11-19T07:50:16;0.40;;;0.40;;
9900;SDS011;4989;48.772;9.154;2023-11-19T07:55:21;1.83;;;0.50;;
9900;SDS011;4989;48.772;9.154;2023-11-19T08:00:23;0.50;;;0.50;;
9900;SDS011;4989;48.772;9.154;2023-11-19T08:05:25;0.20;;;0.20;;
9900;SDS011;4989;48.772;9.154;2023-11-19T08:10:27;0.40;;;0.40;;
9900;SDS011;4989;48.772;9.154;2023-11-19T08:15:30;0.40;;;0.40;;
9900;SDS011;4989;48.772;9.154;2023-11-19T08:20:33;0.40;;;0.40;;
9900;SDS011;4989;48.772;9.154;2023-11-19T08:25:35;0.40;;;0.40;;
9900;SDS011;4989;48.772;9.154;2023-11-19T08:30:38;0.30;;;0.30;;
9900;SDS011;4989;48.772;9.154;2023-11-19T08:35:40;0.53;;;0.50;;
9900;SDS011;4989;48.772;9.154;2023-11-19T08:40:42;0.30;;;0.30;;
9900;SDS011;4989;48.772;9.154;2023-11-19T08:45:44;0.60;;;0.60;;
9900;SDS011;4989;48.772;9.154;2023-11-19T08:50:47;0.30;;;0.30;;
9900;SDS011;4989;48.772;9.154;2023-11-19T08:55:49;0.30;;;0.30;;
9900;SDS011;4989;48.772;9.154;2023-11-19T09:00:51;0.60;;;0.60;;
9900;SDS011;4989;48.772;9.154;2023-11-19T09:05:54;0.80;;;0.80;;
9900;SDS011;4989;48.772;9.154;2023-11-19T09:10:56;0.50;;;0.50;;
9900;SDS011;4989;48.772;9.154;2023-11-19T09:15:59;0.57;;;0.57;;
9900;SDS011;4989;48.772;9.154;2023-11-19T09:21:05;0.50;;;0.50;;
9900;SDS011;4989;48.772;9.154;2023-11-19T09:26:10;0.50;;;0.50;;
9900;SDS011;4989;48.772;9.154;2023-11-19T09:31:13;0.73;;;0.70;;
9900;SDS011;4989;48.772;9.154;2023-11-19T09:36:16;0.60;;;0.60;;
9900;SDS011;4989;48.772;9.154;2023-11-19T09:41:18;0.80;;;0.80;;
9900;SDS011;4989;48.772;9.154;2023-11-19T09:46:21;0.50;;;0.50;;
9900;SDS011;4989;48.772;9.154;2023-11-19T09:51:25;0.60;;;0.60;;
9900;SDS011;4989;48.772;9.154;2023-11-19T09:56:31;0.77;;;0.77;;
9900;SDS011;4989;48.772;9.154;2023-11-19T10:01:37;1.00;;;1.00;;
9900;SDS011;4989;48.772;9.154;2023-11-19T10:06:41;0.93;;;0.90;;
9900;SDS011;4989;48.772;9.154;2023-11-19T10:11:44;0.63;;;0.63;;
9900;SDS011;4989;48.772;9.154;2023-11-19T10:16:46;1.03;;;0.70;;
9900;SDS011;4989;48.772;9.154;2023-11-19T10:21:49;0.60;;;0.60;;
9900;SDS011;4989;48.772;9.154;2023-11-19T10:26:51;0.83;;;0.83;;
9900;SDS011;4989;48.772;9.154;2023-11-19T10:31:56;0.90;;;0.90;;
9900;SDS011;4989;48.772;9.154;2023-11-19T10:37:29;0.90;;;0.80;;
9900;SDS011;4989;48.772;9.154;2023-11-19T10:42:37;0.70;;;0.70;;
9900;SDS011;4989;48.772;9.154;2023-11-19T10:47:39;0.77;;;0.77;;
9900;SDS011;4989;48.772;9.154;2023-11-19T10:52:44;1.10;;;0.60;;
9900;SDS011;4989;48.772;9.154;2023-11-19T10:57:50;0.80;;;0.80;;
9900;SDS011;4989;48.772;9.154;2023-11-19T11:02:54;1.87;;;0.70;;
9900;SDS011;4989;48.772;9.154;2023-11-19T11:08:02;0.87;;;0.87;;
9900;SDS011;4989;48.772;9.154;2023-11-19T11:13:08;1.13;;;1.00;;
9900;SDS011;4989;48.772;9.154;2023-11-19T11:18:12;1.13;;;0.80;;
9900;SDS011;4989;48.772;9.154;2023-11-19T11:39:34;1.07;;;0.87;;
9900;SDS011;4989;48.772;9.154;2023-11-19T11:50:11;0.97;;;0.80;;
9900;SDS011;4989;48.772;9.154;2023-11-19T11:55:15;1.90;;;1.50;;
9900;SDS011;4989;48.772;9.154;2023-11-19T12:00:27;1.30;;;0.90;;
9900;SDS011;4989;48.772;9.154;2023-11-19T12:05:41;1.70;;;0.70;;
9900;SDS011;4989;48.772;9.154;2023-11-19T12:10:52;0.90;;;0.90;;
9900;SDS011;4989;48.772;9.154;2023-11-19T12:21:02;1.43;;;1.00;;
9900;SDS011;4989;48.772;9.154;2023-11-19T12:26:07;0.50;;;0.50;;
9900;SDS011;4989;48.772;9.154;2023-11-19T12:31:09;2.38;;;1.10;;
9900;SDS011;4989;48.772;9.154;2023-11-19T12:36:11;0.77;;;0.77;;
9900;SDS011;4989;48.772;9.154;2023-11-19T12:41:14;0.60;;;0.60;;
9900;SDS011;4989;48.772;9.154;2023-11-19T12:51:30;1.13;;;0.87;;
9900;SDS011;4989;48.772;9.154;2023-11-19T12:56:34;0.57;;;0.57;;
9900;SDS011;4989;48.772;9.154;2023-11-19T13:01:38;0.60;;;0.60;;
9900;SDS011;4989;48.772;9.154;2023-11-19T13:06:44;0.87;;;0.57;;
9900;SDS011;4989;48.772;9.154;2023-11-19T13:11:55;0.63;;;0.63;;
9900;SDS011;4989;48.772;9.154;2023-11-19T13:16:58;1.50;;;0.73;;
9900;SDS011;4989;48.772;9.154;2023-11-19T13:22:00;2.03;;;0.90;;
9900;SDS011;4989;48.772;9.154;2023-11-19T13:27:02;0.80;;;0.80;;
9900;SDS011;4989;48.772;9.154;2023-11-19T13:32:05;2.60;;;0.80;;
9900;SDS011;4989;48.772;9.154;2023-11-19T13:37:08;0.70;;;0.70;;
9900;SDS011;4989;48.772;9.154;2023-11-19T13:42:10;1.77;;;0.80;;
9900;SDS011;4989;48.772;9.154;2023-11-19T13:47:14;0.77;;;0.77;;
9900;SDS011;4989;48.772;9.154;2023-11-19T13:52:16;1.30;;;0.70;;
9900;SDS011;4989;48.772;9.154;2023-11-19T13:57:19;1.43;;;0.70;;
9900;SDS011;4989;48.772;9.154;2023-11-19T14:02:21;1.60;;;0.60;;
9900;SDS011;4989;48.772;9.154;2023-11-19T14:07:23;0.87;;;0.70;;
9900;SDS011;4989;48.772;9.154;2023-11-19T14:12:25;0.50;;;0.50;;
9900;SDS011;4989;48.772;9.154;2023-11-19T14:17:28;0.60;;;0.60;;
9900;SDS011;4989;48.772;9.154;2023-11-19T14:22:30;0.60;;;0.60;;
9900;SDS011;4989;48.772;9.154;2023-11-19T14:27:32;0.63;;;0.63;;
9900;SDS011;4989;48.772;9.154;2023-11-19T14:32:38;2.17;;;0.93;;
9900;SDS011;4989;48.772;9.154;2023-11-19T14:37:43;0.70;;;0.70;;
9900;SDS011;4989;48.772;9.154;2023-11-19T14:42:46;0.80;;;0.73;;
9900;SDS011;4989;48.772;9.154;2023-11-19T14:47:48;0.43;;;0.43;;
9900;SDS011;4989;48.772;9.154;2023-11-19T14:52:50;1.40;;;0.60;;
9900;SDS011;4989;48.772;9.154;2023-11-19T14:57:52;0.70;;;0.70;;
9900;SDS011;4989;48.772;9.154;2023-11-19T15:03:08;0.97;;;0.80;;
9900;SDS011;4989;48.772;9.154;2023-11-19T15:08:11;0.77;;;0.77;;
9900;SDS011;4989;48.772;9.154;2023-11-19T15:13:13;1.57;;;0.90;;
9900;SDS011;4989;48.772;9.154;2023-11-19T15:18:16;1.93;;;1.10;;
9900;SDS011;4989;48.772;9.154;2023-11-19T15:23:19;1.20;;;0.93;;
9900;SDS011;4989;48.772;9.154;2023-11-19T15:28:21;0.70;;;0.70;;
9900;SDS011;4989;48.772;9.154;2023-11-19T15:33:23;0.70;;;0.70;;
9900;SDS011;4989;48.772;9.154;2023-11-19T15:38:25;2.17;;;0.80;;
9900;SDS011;4989;48.772;9.154;2023-11-19T15:43:28;1.67;;;0.80;;
9900;SDS011;4989;48.772;9.154;2023-11-19T15:48:31;1.27;;;0.80;;
9900;SDS011;4989;48.772;9.154;2023-11-19T15:53:33;1.57;;;0.70;;
9900;SDS011;4989;48.772;9.154;2023-11-19T15:58:35;1.57;;;1.47;;
9900;SDS011;4989;48.772;9.154;2023-11-19T16:03:38;0.60;;;0.60;;
9900;SDS011;4989;48.772;9.154;2023-11-19T16:08:43;0.90;;;0.80;;
9900;SDS011;4989;48.772;9.154;2023-11-19T16:13:46;1.27;;;0.80;;
9900;SDS011;4989;48.772;9.154;2023-11-19T16:18:48;0.83;;;0.83;;
9900;SDS011;4989;48.772;9.154;2023-11-19T16:23:51;0.90;;;0.90;;
9900;SDS011;4989;48.772;9.154;2023-11-19T16:28:53;1.07;;;0.73;;
9900;SDS011;4989;48.772;9.154;2023-11-19T16:33:55;0.40;;;0.40;;
9900;SDS011;4989;48.772;9.154;2023-11-19T16:38:57;1.20;;;0.90;;
9900;SDS011;4989;48.772;9.154;2023-11-19T16:44:02;1.93;;;0.93;;
9900;SDS011;4989;48.772;9.154;2023-11-19T16:49:06;1.60;;;0.97;;
9900;SDS011;4989;48.772;9.154;2023-11-19T16:54:09;1.10;;;1.00;;
9900;SDS011;4989;48.772;9.154;2023-11-19T16:59:11;0.83;;;0.83;;
9900;SDS011;4989;48.772;9.154;2023-11-19T17:04:16;0.70;;;0.70;;
9900;SDS011;4989;48.772;9.154;2023-11-19T17:09:19;0.83;;;0.83;;
9900;SDS011;4989;48.772;9.154;2023-11-19T17:14:21;1.67;;;0.87;;
9900;SDS011;4989;48.772;9.154;2023-11-19T17:19:40;0.87;;;0.70;;
9900;SDS011;4989;48.772;9.154;2023-11-19T17:24:43;3.03;;;1.00;;
9900;SDS011;4989;48.772;9.154;2023-11-19T17:29:45;1.47;;;1.13;;
9900;SDS011;4989;48.772;9.154;2023-11-19T17:34:47;0.60;;;0.60;;
9900;SDS011;4989;48.772;9.154;2023-11-19T17:39:51;1.47;;;1.00;;
9900;SDS011;4989;48.772;9.154;2023-11-19T17:44:56;0.70;;;0.70;;
9900;SDS011;4989;48.772;9.154;2023-11-19T17:50:00;1.17;;;0.73;;
9900;SDS011;4989;48.772;9.154;2023-11-19T17:55:24;0.70;;;0.70;;
9900;SDS011;4989;48.772;9.154;2023-11-19T18:00:27;0.97;;;0.80;;
9900;SDS011;4989;48.772;9.154;2023-11-19T18:05:29;2.60;;;0.90;;
9900;SDS011;4989;48.772;9.154;2023-11-19T18:10:32;2.90;;;1.00;;
9900;SDS011;4989;48.772;9.154;2023-11-19T18:15:34;0.87;;;0.80;;
9900;SDS011;4989;48.772;9.154;2023-11-19T18:20:38;0.90;;;0.90;;
9900;SDS011;4989;48.772;9.154;2023-11-19T18:25:40;0.97;;;0.97;;
9900;SDS011;4989;48.772;9.154;2023-11-19T18:30:42;4.53;;;1.10;;
9900;SDS011;4989;48.772;9.154;2023-11-19T18:35:45;1.20;;;0.93;;
9900;SDS011;4989;48.772;9.154;2023-11-19T18:40:47;2.30;;;1.10;;
9900;SDS011;4989;48.772;9.154;2023-11-19T18:45:49;1.37;;;1.27;;
9900;SDS011;4989;48.772;9.154;2023-11-19T18:50:52;1.03;;;1.00;;
9900;SDS011;4989;48.772;9.154;2023-11-19T18:55:54;0.93;;;0.87;;
9900;SDS011;4989;48.772;9.154;2023-11-19T19:00:56;0.80;;;0.80;;
9900;SDS011;4989;48.772;9.154;2023-11-19T19:05:58;0.80;;;0.80;;
9900;SDS011;4989;48.772;9.154;2023-11-19T19:11:02;1.40;;;0.90;;
9900;SDS011;4989;48.772;9.154;2023-11-19T19:16:05;1.70;;;1.10;;
9900;SDS011;4989;48.772;9.154;2023-11-19T19:21:09;2.53;;;1.40;;
9900;SDS011;4989;48.772;9.154;2023-11-19T19:26:12;1.17;;;1.00;;
9900;SDS011;4989;48.772;9.154;2023-11-19T19:31:15;4.43;;;3.50;;
9900;SDS011;4989;48.772;9.154;2023-11-19T19:36:20;2.23;;;1.20;;
9900;SDS011;4989;48.772;9.154;2023-11-19T19:41:23;1.63;;;1.40;;
9900;SDS011;4989;48.772;9.154;2023-11-19T19:46:25;1.10;;;1.00;;
9900;SDS011;4989;48.772;9.154;2023-11-19T19:51:29;3.03;;;1.30;;
9900;SDS011;4989;48.772;9.154;2023-11-19T19:56:32;2.53;;;1.27;;
9900;SDS011;4989;48.772;9.154;2023-11-19T20:01:34;2.23;;;1.10;;
9900;SDS011;4989;48.772;9.154;2023-11-19T20:06:37;1.90;;;1.20;;
9900;SDS011;4989;48.772;9.154;2023-11-19T20:11:40;3.37;;;1.20;;
9900;SDS011;4989;48.772;9.154;2023-11-19T20:16:45;4.00;;;1.20;;
9900;SDS011;4989;48.772;9.154;2023-11-19T20:21:47;2.83;;;1.20;;
9900;SDS011;4989;48.772;9.154;2023-11-19T20:26:50;1.20;;;1.20;;
9900;SDS011;4989;48.772;9.154;2023-11-19T20:31:55;2.60;;;0.90;;
9900;SDS011;4989;48.772;9.154;2023-11-19T20:36:57;2.53;;;1.10;;
9900;SDS011;4989;48.772;9.154;2023-11-19T20:41:59;4.97;;;1.43;;
9900;SDS011;4989;48.772;9.154;2023-11-19T20:47:05;3.07;;;1.33;;
9900;SDS011;4989;48.772;9.154;2023-11-19T20:52:08;2.57;;;1.03;;
9900;SDS011;4989;48.772;9.154;2023-11-19T20:57:10;2.60;;;1.50;;
9900;SDS011;4989;48.772;9.154;2023-11-19T21:02:13;2.73;;;1.40;;
9900;SDS011;4989;48.772;9.154;2023-11-19T21:07:16;2.93;;;1.50;;
9900;SDS011;4989;48.772;9.154;2023-11-19T21:12:19;5.13;;;1.53;;
9900;SDS011;4989;48.772;9.154;2023-11-19T21:17:21;4.20;;;1.37;;
9900;SDS011;4989;48.772;9.154;2023-11-19T21:22:24;7.90;;;1.23;;
9900;SDS011;4989;48.772;9.154;2023-11-19T21:27:26;1.67;;;1.20;;
9900;SDS011;4989;48.772;9.154;2023-11-19T21:32:31;1.87;;;1.20;;
9900;SDS011;4989;48.772;9.154;2023-11-19T21:37:34;2.00;;;1.27;;
9900;SDS011;4989;48.772;9.154;2023-11-19T21:42:36;3.37;;;1.30;;
9900;SDS011;4989;48.772;9.154;2023-11-19T21:47:39;2.53;;;1.17;;
9900;SDS011;4989;48.772;9.154;2023-11-19T21:52:41;6.00;;;1.30;;
9900;SDS011;4989;48.772;9.154;2023-11-19T21:57:43;4.87;;;1.63;;
9900;SDS011;4989;48.772;9.154;2023-11-19T22:02:45;3.03;;;1.67;;
9900;SDS011;4989;48.772;9.154;2023-11-19T22:07:48;6.60;;;1.77;;
9900;SDS011;4989;48.772;9.154;2023-11-19T22:12:50;7.60;;;2.30;;
9900;SDS011;4989;48.772;9.154;2023-11-19T22:17:53;7.50;;;1.50;;
9900;SDS011;4989;48.772;9.154;2023-11-19T22:22:55;3.83;;;1.60;;
9900;SDS011;4989;48.772;9.154;2023-11-19T22:27:58;7.30;;;1.40;;
9900;SDS011;4989;48.772;9.154;2023-11-19T22:33:00;5.33;;;1.43;;
9900;SDS011;4989;48.772;9.154;2023-11-19T22:38:02;4.17;;;1.53;;
9900;SDS011;4989;48.772;9.154;2023-11-19T22:43:05;6.47;;;1.47;;
9900;SDS011;4989;48.772;9.154;2023-11-19T22:48:07;5.37;;;1.50;;
9900;SDS011;4989;48.772;9.154;2023-11-19T22:53:09;4.20;;;1.40;;
9900;SDS011;4989;48.772;9.154;2023-11-19T22:58:12;6.43;;;1.70;;
9900;SDS011;4989;48.772;9.154;2023-11-19T23:03:14;4.93;;;1.20;;
9900;SDS011;4989;48.772;9.154;2023-11-19T23:08:16;5.10;;;1.60;;
9900;SDS011;4989;48.772;9.154;2023-11-19T23:13:18;5.90;;;1.87;;
9900;SDS011;4989;48.772;9.154;2023-11-19T23:18:21;5.00;;;1.47;;
9900;SDS011;4989;48.772;9.154;2023-11-19T23:23:23;2.60;;;1.37;;
9900;SDS011;4989;48.772;9.154;2023-11-19T23:28:25;7.70;;;2.20;;
9900;SDS011;4989;48.772;9.154;2023-11-19T23:33:28;5.93;;;1.53;;
9900;SDS011;4989;48.772;9.154;2023-11-19T23:38:33;4.70;;;1.33;;
9900;SDS011;4989;48.772;9.154;2023-11-19T23:43:35;4.90;;;1.50;;
9900;SDS011;4989;48.772;9.154;2023-11-19T23:48:40;5.03;;;1.40;;
9900;SDS011;4989;48.772;9.154;2023-11-19T23:53:45;10.30;;;1.80;;
9900;SDS011;4989;48.772;9.154;2023-11-19T23:58:47;3.33;;;1.30;;
